Decoded Metar for OICI (ILAM in IRAN) (IATA:N/A) | Meteo·Mobile Aviation Weather
aviador You're here:

OICI Decoded Metar

ILAM in IRAN
Report Time2018-09-19 20:00:00
UTC Time2018-09-19 20:48:19
Flight Rules vfr VFR
Wind120° at 04 kt
W.Decomp.*RWY 14: 3.7 kt HW 1.6 kt LCW
W.Rank120° ranks 1
Current wind is below 120° avg. (5.0)
Visibility9999 m
Phenomena:N/A
Clouds:N/A
Expected CloudBase > 6,800 ft AGL from Temp-Dew spread
CeilingNone
Temp24°C (ISA +18)
Dew Point07°C (34% RH)
AAT21.9°C
QNH1019 hPa
Density Alt6,378 ft
Elevation4,403 ft
Report Wrong Elevation
Raw Report
METAR OICI 192000Z 12004KT CAVOK 24/07 Q1019 A3009=

Extra information for OICI:More info

Metar Taf Metar & Taf Last 4 Metars F.Rules Stats Wind Profile Meteogram Temp Stats Airport Information Weather charts Add Link Nearby VenuesMetar ALERT Operation Metar Decoded Social comments